sensor_id;sensor_type;location;lat;lon;timestamp;P1;durP1;ratioP1;P2;durP2;ratioP2
59659;SDS011;45534;52.690;6.268;2023-05-10T00:02:06;13.20;;;9.00;;
59659;SDS011;45534;52.690;6.268;2023-05-10T00:04:32;12.27;;;8.05;;
59659;SDS011;45534;52.690;6.268;2023-05-10T00:06:58;14.57;;;8.75;;
59659;SDS011;45534;52.690;6.268;2023-05-10T00:09:24;13.85;;;7.53;;
59659;SDS011;45534;52.690;6.268;2023-05-10T00:11:50;10.82;;;7.25;;
59659;SDS011;45534;52.690;6.268;2023-05-10T00:14:15;12.25;;;8.15;;
59659;SDS011;45534;52.690;6.268;2023-05-10T00:16:42;12.88;;;7.82;;
59659;SDS011;45534;52.690;6.268;2023-05-10T00:19:07;9.93;;;6.80;;
59659;SDS011;45534;52.690;6.268;2023-05-10T00:21:33;14.65;;;7.35;;
59659;SDS011;45534;52.690;6.268;2023-05-10T00:23:59;10.63;;;6.57;;
59659;SDS011;45534;52.690;6.268;2023-05-10T00:26:25;11.57;;;5.97;;
59659;SDS011;45534;52.690;6.268;2023-05-10T00:28:51;11.95;;;7.80;;
59659;SDS011;45534;52.690;6.268;2023-05-10T00:31:16;11.98;;;7.10;;
59659;SDS011;45534;52.690;6.268;2023-05-10T00:33:42;8.48;;;5.70;;
59659;SDS011;45534;52.690;6.268;2023-05-10T00:36:08;9.32;;;6.07;;
59659;SDS011;45534;52.690;6.268;2023-05-10T00:38:34;7.90;;;5.32;;
59659;SDS011;45534;52.690;6.268;2023-05-10T00:40:59;9.70;;;6.25;;
59659;SDS011;45534;52.690;6.268;2023-05-10T00:43:25;9.40;;;6.28;;
59659;SDS011;45534;52.690;6.268;2023-05-10T00:45:51;10.00;;;6.07;;
59659;SDS011;45534;52.690;6.268;2023-05-10T00:48:17;8.75;;;4.65;;
59659;SDS011;45534;52.690;6.268;2023-05-10T00:50:43;6.85;;;4.80;;
59659;SDS011;45534;52.690;6.268;2023-05-10T00:53:09;9.25;;;6.05;;
59659;SDS011;45534;52.690;6.268;2023-05-10T00:55:35;6.40;;;3.85;;
59659;SDS011;45534;52.690;6.268;2023-05-10T00:58:02;6.80;;;4.18;;
59659;SDS011;45534;52.690;6.268;2023-05-10T01:00:28;7.57;;;4.47;;
59659;SDS011;45534;52.690;6.268;2023-05-10T01:02:54;5.28;;;2.90;;
59659;SDS011;45534;52.690;6.268;2023-05-10T01:05:20;5.93;;;3.83;;
59659;SDS011;45534;52.690;6.268;2023-05-10T01:07:46;5.15;;;3.55;;
59659;SDS011;45534;52.690;6.268;2023-05-10T01:10:12;12.90;;;6.65;;
59659;SDS011;45534;52.690;6.268;2023-05-10T01:12:39;9.82;;;6.43;;
59659;SDS011;45534;52.690;6.268;2023-05-10T01:15:07;6.53;;;4.47;;
59659;SDS011;45534;52.690;6.268;2023-05-10T01:17:37;8.30;;;4.57;;
59659;SDS011;45534;52.690;6.268;2023-05-10T01:20:05;8.40;;;5.78;;
59659;SDS011;45534;52.690;6.268;2023-05-10T01:28:36;7.20;;;4.47;;
59659;SDS011;45534;52.690;6.268;2023-05-10T01:33:58;7.00;;;4.13;;
59659;SDS011;45534;52.690;6.268;2023-05-10T01:36:48;7.38;;;3.92;;
59659;SDS011;45534;52.690;6.268;2023-05-10T01:42:20;8.20;;;4.32;;
59659;SDS011;45534;52.690;6.268;2023-05-10T01:47:44;8.18;;;5.18;;
59659;SDS011;45534;52.690;6.268;2023-05-10T01:50:17;5.45;;;3.20;;
59659;SDS011;45534;52.690;6.268;2023-05-10T01:52:49;9.95;;;4.55;;
59659;SDS011;45534;52.690;6.268;2023-05-10T01:57:46;10.05;;;5.07;;
59659;SDS011;45534;52.690;6.268;2023-05-10T02:00:16;7.20;;;5.25;;
59659;SDS011;45534;52.690;6.268;2023-05-10T02:02:45;7.65;;;4.40;;
59659;SDS011;45534;52.690;6.268;2023-05-10T02:05:13;6.93;;;4.63;;
59659;SDS011;45534;52.690;6.268;2023-05-10T02:07:40;7.43;;;4.40;;
59659;SDS011;45534;52.690;6.268;2023-05-10T02:10:07;7.03;;;3.30;;
59659;SDS011;45534;52.690;6.268;2023-05-10T02:12:35;4.90;;;3.22;;
59659;SDS011;45534;52.690;6.268;2023-05-10T02:15:04;8.57;;;4.82;;
59659;SDS011;45534;52.690;6.268;2023-05-10T02:17:32;5.38;;;3.40;;
59659;SDS011;45534;52.690;6.268;2023-05-10T02:19:59;6.30;;;3.55;;
59659;SDS011;45534;52.690;6.268;2023-05-10T02:26:17;8.60;;;5.93;;
59659;SDS011;45534;52.690;6.268;2023-05-10T02:35:27;7.90;;;4.80;;
59659;SDS011;45534;52.690;6.268;2023-05-10T02:37:53;5.65;;;3.58;;
59659;SDS011;45534;52.690;6.268;2023-05-10T02:40:20;8.43;;;3.95;;
59659;SDS011;45534;52.690;6.268;2023-05-10T02:42:47;7.80;;;4.63;;
59659;SDS011;45534;52.690;6.268;2023-05-10T02:45:18;9.60;;;5.32;;
59659;SDS011;45534;52.690;6.268;2023-05-10T02:47:47;7.82;;;4.88;;
59659;SDS011;45534;52.690;6.268;2023-05-10T02:50:13;10.18;;;5.20;;
59659;SDS011;45534;52.690;6.268;2023-05-10T02:52:44;5.10;;;3.80;;
59659;SDS011;45534;52.690;6.268;2023-05-10T02:55:16;9.43;;;5.72;;
59659;SDS011;45534;52.690;6.268;2023-05-10T02:57:48;6.80;;;4.40;;
59659;SDS011;45534;52.690;6.268;2023-05-10T03:00:17;9.32;;;4.68;;
59659;SDS011;45534;52.690;6.268;2023-05-10T03:02:42;9.23;;;5.55;;
59659;SDS011;45534;52.690;6.268;2023-05-10T03:05:08;7.47;;;5.63;;
59659;SDS011;45534;52.690;6.268;2023-05-10T03:07:34;10.30;;;5.85;;
59659;SDS011;45534;52.690;6.268;2023-05-10T03:10:00;7.15;;;4.78;;
59659;SDS011;45534;52.690;6.268;2023-05-10T03:18:23;8.52;;;5.65;;
59659;SDS011;45534;52.690;6.268;2023-05-10T03:20:57;7.55;;;5.75;;
59659;SDS011;45534;52.690;6.268;2023-05-10T03:23:36;6.25;;;4.45;;
59659;SDS011;45534;52.690;6.268;2023-05-10T03:26:12;8.52;;;5.55;;
59659;SDS011;45534;52.690;6.268;2023-05-10T03:28:43;4.57;;;2.67;;
59659;SDS011;45534;52.690;6.268;2023-05-10T03:31:09;7.43;;;5.05;;
59659;SDS011;45534;52.690;6.268;2023-05-10T03:33:35;6.38;;;4.90;;
59659;SDS011;45534;52.690;6.268;2023-05-10T03:36:10;8.95;;;6.47;;
59659;SDS011;45534;52.690;6.268;2023-05-10T03:38:36;8.68;;;5.10;;
59659;SDS011;45534;52.690;6.268;2023-05-10T03:41:01;8.18;;;5.60;;
59659;SDS011;45534;52.690;6.268;2023-05-10T03:43:27;10.95;;;6.43;;
59659;SDS011;45534;52.690;6.268;2023-05-10T03:45:53;8.13;;;5.70;;
59659;SDS011;45534;52.690;6.268;2023-05-10T03:48:18;6.85;;;4.50;;
59659;SDS011;45534;52.690;6.268;2023-05-10T03:50:44;8.20;;;4.60;;
59659;SDS011;45534;52.690;6.268;2023-05-10T03:53:10;6.00;;;3.55;;
59659;SDS011;45534;52.690;6.268;2023-05-10T03:55:37;10.38;;;7.95;;
59659;SDS011;45534;52.690;6.268;2023-05-10T03:58:03;8.40;;;4.90;;
59659;SDS011;45534;52.690;6.268;2023-05-10T04:00:28;10.82;;;5.30;;
59659;SDS011;45534;52.690;6.268;2023-05-10T04:02:55;4.75;;;3.80;;
59659;SDS011;45534;52.690;6.268;2023-05-10T04:05:21;11.73;;;4.90;;
59659;SDS011;45534;52.690;6.268;2023-05-10T04:07:46;4.57;;;2.92;;
59659;SDS011;45534;52.690;6.268;2023-05-10T04:10:14;8.65;;;4.63;;
59659;SDS011;45534;52.690;6.268;2023-05-10T04:12:41;5.53;;;3.75;;
59659;SDS011;45534;52.690;6.268;2023-05-10T04:15:07;7.10;;;5.03;;
59659;SDS011;45534;52.690;6.268;2023-05-10T04:17:33;4.88;;;3.38;;
59659;SDS011;45534;52.690;6.268;2023-05-10T04:19:59;8.05;;;6.25;;
59659;SDS011;45534;52.690;6.268;2023-05-10T04:22:24;6.10;;;4.28;;
59659;SDS011;45534;52.690;6.268;2023-05-10T04:24:50;8.15;;;4.18;;
59659;SDS011;45534;52.690;6.268;2023-05-10T04:27:16;5.78;;;4.05;;
59659;SDS011;45534;52.690;6.268;2023-05-10T04:29:41;7.22;;;4.85;;
59659;SDS011;45534;52.690;6.268;2023-05-10T04:32:07;8.80;;;3.33;;
59659;SDS011;45534;52.690;6.268;2023-05-10T04:34:35;5.97;;;4.55;;
59659;SDS011;45534;52.690;6.268;2023-05-10T04:37:01;11.52;;;6.13;;
59659;SDS011;45534;52.690;6.268;2023-05-10T04:39:27;7.97;;;6.47;;
59659;SDS011;45534;52.690;6.268;2023-05-10T04:41:52;6.97;;;4.28;;
59659;SDS011;45534;52.690;6.268;2023-05-10T04:44:18;8.77;;;4.82;;
59659;SDS011;45534;52.690;6.268;2023-05-10T04:46:44;9.25;;;4.18;;
59659;SDS011;45534;52.690;6.268;2023-05-10T04:49:09;13.20;;;5.90;;
59659;SDS011;45534;52.690;6.268;2023-05-10T04:51:35;8.48;;;5.63;;
59659;SDS011;45534;52.690;6.268;2023-05-10T04:54:01;8.88;;;6.55;;
59659;SDS011;45534;52.690;6.268;2023-05-10T04:56:26;13.93;;;6.15;;
59659;SDS011;45534;52.690;6.268;2023-05-10T04:58:52;8.05;;;5.53;;
59659;SDS011;45534;52.690;6.268;2023-05-10T05:01:18;7.22;;;4.22;;
59659;SDS011;45534;52.690;6.268;2023-05-10T05:03:44;9.43;;;4.95;;
59659;SDS011;45534;52.690;6.268;2023-05-10T05:06:09;18.65;;;8.52;;
59659;SDS011;45534;52.690;6.268;2023-05-10T05:08:35;10.85;;;5.10;;
59659;SDS011;45534;52.690;6.268;2023-05-10T05:11:01;15.25;;;6.93;;
59659;SDS011;45534;52.690;6.268;2023-05-10T05:13:26;11.85;;;6.18;;
59659;SDS011;45534;52.690;6.268;2023-05-10T05:15:52;9.88;;;6.32;;
59659;SDS011;45534;52.690;6.268;2023-05-10T05:18:18;8.10;;;5.18;;
59659;SDS011;45534;52.690;6.268;2023-05-10T05:20:44;10.00;;;4.82;;
59659;SDS011;45534;52.690;6.268;2023-05-10T05:23:10;9.00;;;6.65;;
59659;SDS011;45534;52.690;6.268;2023-05-10T05:25:35;13.07;;;5.70;;
59659;SDS011;45534;52.690;6.268;2023-05-10T05:28:01;11.80;;;5.57;;
59659;SDS011;45534;52.690;6.268;2023-05-10T05:30:27;14.40;;;7.47;;
59659;SDS011;45534;52.690;6.268;2023-05-10T05:32:52;12.60;;;7.15;;
59659;SDS011;45534;52.690;6.268;2023-05-10T05:35:18;15.40;;;5.60;;
59659;SDS011;45534;52.690;6.268;2023-05-10T05:37:44;8.95;;;6.18;;
59659;SDS011;45534;52.690;6.268;2023-05-10T05:40:12;6.88;;;5.25;;
59659;SDS011;45534;52.690;6.268;2023-05-10T05:42:39;13.52;;;7.43;;
59659;SDS011;45534;52.690;6.268;2023-05-10T05:45:04;9.57;;;4.95;;
59659;SDS011;45534;52.690;6.268;2023-05-10T05:47:31;9.93;;;6.68;;
59659;SDS011;45534;52.690;6.268;2023-05-10T05:49:57;14.45;;;7.22;;
59659;SDS011;45534;52.690;6.268;2023-05-10T05:52:22;10.38;;;5.30;;
59659;SDS011;45534;52.690;6.268;2023-05-10T05:54:48;10.05;;;6.13;;
59659;SDS011;45534;52.690;6.268;2023-05-10T05:57:14;12.45;;;6.25;;
59659;SDS011;45534;52.690;6.268;2023-05-10T05:59:39;10.35;;;5.80;;
59659;SDS011;45534;52.690;6.268;2023-05-10T06:02:09;17.00;;;9.85;;
59659;SDS011;45534;52.690;6.268;2023-05-10T06:04:35;15.40;;;7.47;;
59659;SDS011;45534;52.690;6.268;2023-05-10T06:07:01;15.43;;;10.18;;
59659;SDS011;45534;52.690;6.268;2023-05-10T06:09:26;16.90;;;7.53;;
59659;SDS011;45534;52.690;6.268;2023-05-10T06:11:52;39.55;;;8.68;;
59659;SDS011;45534;52.690;6.268;2023-05-10T06:14:19;17.10;;;5.50;;
59659;SDS011;45534;52.690;6.268;2023-05-10T06:16:46;13.90;;;6.03;;
59659;SDS011;45534;52.690;6.268;2023-05-10T06:19:12;5.28;;;3.70;;
59659;SDS011;45534;52.690;6.268;2023-05-10T06:21:37;13.20;;;4.85;;
59659;SDS011;45534;52.690;6.268;2023-05-10T06:24:03;11.27;;;7.43;;
59659;SDS011;45534;52.690;6.268;2023-05-10T06:26:30;9.77;;;6.55;;
59659;SDS011;45534;52.690;6.268;2023-05-10T06:28:56;11.00;;;5.35;;
59659;SDS011;45534;52.690;6.268;2023-05-10T06:31:21;10.80;;;6.03;;
59659;SDS011;45534;52.690;6.268;2023-05-10T06:33:47;14.05;;;7.97;;
59659;SDS011;45534;52.690;6.268;2023-05-10T06:36:13;11.55;;;6.85;;
59659;SDS011;45534;52.690;6.268;2023-05-10T06:38:38;11.30;;;7.60;;
59659;SDS011;45534;52.690;6.268;2023-05-10T06:41:04;10.25;;;5.10;;
59659;SDS011;45534;52.690;6.268;2023-05-10T06:43:30;8.48;;;4.45;;
59659;SDS011;45534;52.690;6.268;2023-05-10T06:45:56;17.17;;;6.50;;
59659;SDS011;45534;52.690;6.268;2023-05-10T06:48:22;11.80;;;5.35;;
59659;SDS011;45534;52.690;6.268;2023-05-10T06:50:48;11.15;;;5.15;;
59659;SDS011;45534;52.690;6.268;2023-05-10T06:53:14;21.05;;;8.35;;
59659;SDS011;45534;52.690;6.268;2023-05-10T06:55:40;12.52;;;6.90;;
59659;SDS011;45534;52.690;6.268;2023-05-10T06:58:05;13.27;;;6.38;;
59659;SDS011;45534;52.690;6.268;2023-05-10T07:00:31;11.25;;;4.88;;
59659;SDS011;45534;52.690;6.268;2023-05-10T07:02:57;15.40;;;4.85;;
59659;SDS011;45534;52.690;6.268;2023-05-10T07:05:23;9.25;;;5.50;;
59659;SDS011;45534;52.690;6.268;2023-05-10T07:07:49;18.25;;;5.43;;
59659;SDS011;45534;52.690;6.268;2023-05-10T07:10:15;5.28;;;4.05;;
59659;SDS011;45534;52.690;6.268;2023-05-10T07:12:41;11.05;;;6.50;;
59659;SDS011;45534;52.690;6.268;2023-05-10T07:15:07;15.20;;;5.88;;
59659;SDS011;45534;52.690;6.268;2023-05-10T07:17:33;9.40;;;4.50;;
59659;SDS011;45534;52.690;6.268;2023-05-10T07:19:59;8.73;;;5.25;;
59659;SDS011;45534;52.690;6.268;2023-05-10T07:22:25;10.32;;;6.05;;
59659;SDS011;45534;52.690;6.268;2023-05-10T07:24:51;12.75;;;4.30;;
59659;SDS011;45534;52.690;6.268;2023-05-10T07:27:16;8.73;;;6.45;;
59659;SDS011;45534;52.690;6.268;2023-05-10T07:29:42;10.57;;;6.93;;
59659;SDS011;45534;52.690;6.268;2023-05-10T07:32:08;9.90;;;4.95;;
59659;SDS011;45534;52.690;6.268;2023-05-10T07:34:33;9.98;;;4.40;;
59659;SDS011;45534;52.690;6.268;2023-05-10T07:36:59;8.50;;;4.90;;
59659;SDS011;45534;52.690;6.268;2023-05-10T07:39:26;7.78;;;5.80;;
59659;SDS011;45534;52.690;6.268;2023-05-10T07:41:52;10.30;;;4.45;;
59659;SDS011;45534;52.690;6.268;2023-05-10T07:44:19;11.02;;;4.65;;
59659;SDS011;45534;52.690;6.268;2023-05-10T07:46:45;7.88;;;5.57;;
59659;SDS011;45534;52.690;6.268;2023-05-10T07:49:12;5.88;;;3.25;;
59659;SDS011;45534;52.690;6.268;2023-05-10T07:51:38;4.30;;;3.72;;
59659;SDS011;45534;52.690;6.268;2023-05-10T07:54:04;5.65;;;3.15;;
59659;SDS011;45534;52.690;6.268;2023-05-10T07:56:30;3.50;;;2.92;;
59659;SDS011;45534;52.690;6.268;2023-05-10T07:58:59;3.08;;;2.55;;
59659;SDS011;45534;52.690;6.268;2023-05-10T08:01:26;6.53;;;3.92;;
59659;SDS011;45534;52.690;6.268;2023-05-10T08:03:54;47.95;;;9.20;;
59659;SDS011;45534;52.690;6.268;2023-05-10T08:06:20;8.98;;;2.70;;
59659;SDS011;45534;52.690;6.268;2023-05-10T08:08:46;1.90;;;1.80;;
59659;SDS011;45534;52.690;6.268;2023-05-10T08:11:16;6.53;;;2.85;;
59659;SDS011;45534;52.690;6.268;2023-05-10T08:13:42;4.20;;;2.78;;
59659;SDS011;45534;52.690;6.268;2023-05-10T08:16:08;6.20;;;2.75;;
59659;SDS011;45534;52.690;6.268;2023-05-10T08:18:34;4.32;;;2.35;;
59659;SDS011;45534;52.690;6.268;2023-05-10T08:21:00;4.95;;;2.78;;
59659;SDS011;45534;52.690;6.268;2023-05-10T08:23:26;4.93;;;3.08;;
59659;SDS011;45534;52.690;6.268;2023-05-10T08:25:51;5.63;;;2.80;;
59659;SDS011;45534;52.690;6.268;2023-05-10T08:28:17;5.10;;;3.53;;
59659;SDS011;45534;52.690;6.268;2023-05-10T08:30:43;7.60;;;3.75;;
59659;SDS011;45534;52.690;6.268;2023-05-10T08:33:08;5.07;;;3.72;;
59659;SDS011;45534;52.690;6.268;2023-05-10T08:35:34;9.38;;;4.22;;
59659;SDS011;45534;52.690;6.268;2023-05-10T08:38:00;4.20;;;2.85;;
59659;SDS011;45534;52.690;6.268;2023-05-10T08:40:26;7.05;;;4.22;;
59659;SDS011;45534;52.690;6.268;2023-05-10T08:42:56;6.15;;;3.47;;
59659;SDS011;45534;52.690;6.268;2023-05-10T08:45:27;5.30;;;2.85;;
59659;SDS011;45534;52.690;6.268;2023-05-10T08:47:58;4.78;;;3.70;;
59659;SDS011;45534;52.690;6.268;2023-05-10T08:50:26;6.53;;;4.20;;
59659;SDS011;45534;52.690;6.268;2023-05-10T08:52:52;7.18;;;3.67;;
59659;SDS011;45534;52.690;6.268;2023-05-10T08:55:23;6.38;;;4.07;;
59659;SDS011;45534;52.690;6.268;2023-05-10T08:57:49;6.03;;;3.50;;
59659;SDS011;45534;52.690;6.268;2023-05-10T09:00:15;5.53;;;3.38;;
59659;SDS011;45534;52.690;6.268;2023-05-10T09:02:43;4.25;;;3.70;;
59659;SDS011;45534;52.690;6.268;2023-05-10T09:05:10;6.13;;;3.13;;
59659;SDS011;45534;52.690;6.268;2023-05-10T09:07:37;7.95;;;4.45;;
59659;SDS011;45534;52.690;6.268;2023-05-10T09:10:03;6.03;;;3.63;;
59659;SDS011;45534;52.690;6.268;2023-05-10T09:12:29;5.32;;;3.03;;
59659;SDS011;45534;52.690;6.268;2023-05-10T09:14:55;4.40;;;2.90;;
59659;SDS011;45534;52.690;6.268;2023-05-10T09:17:24;8.73;;;4.25;;
59659;SDS011;45534;52.690;6.268;2023-05-10T09:20:02;19.95;;;6.75;;
59659;SDS011;45534;52.690;6.268;2023-05-10T09:22:32;6.95;;;3.63;;
59659;SDS011;45534;52.690;6.268;2023-05-10T09:25:08;6.95;;;4.35;;
59659;SDS011;45534;52.690;6.268;2023-05-10T09:27:36;9.80;;;4.15;;
59659;SDS011;45534;52.690;6.268;2023-05-10T09:30:03;9.57;;;4.97;;
59659;SDS011;45534;52.690;6.268;2023-05-10T09:32:40;9.27;;;5.30;;
59659;SDS011;45534;52.690;6.268;2023-05-10T09:35:17;11.50;;;6.57;;
59659;SDS011;45534;52.690;6.268;2023-05-10T09:37:48;12.05;;;5.07;;
59659;SDS011;45534;52.690;6.268;2023-05-10T09:40:16;9.93;;;5.85;;
59659;SDS011;45534;52.690;6.268;2023-05-10T09:45:18;22.70;;;6.50;;
59659;SDS011;45534;52.690;6.268;2023-05-10T09:47:45;7.95;;;4.75;;
59659;SDS011;45534;52.690;6.268;2023-05-10T09:50:11;10.32;;;5.05;;
59659;SDS011;45534;52.690;6.268;2023-05-10T09:52:52;6.60;;;4.40;;
59659;SDS011;45534;52.690;6.268;2023-05-10T09:55:26;9.88;;;5.70;;
59659;SDS011;45534;52.690;6.268;2023-05-10T09:58:01;10.35;;;6.55;;
59659;SDS011;45534;52.690;6.268;2023-05-10T10:00:27;10.48;;;5.53;;
59659;SDS011;45534;52.690;6.268;2023-05-10T10:02:59;10.85;;;5.05;;
59659;SDS011;45534;52.690;6.268;2023-05-10T10:05:28;8.43;;;5.35;;
59659;SDS011;45534;52.690;6.268;2023-05-10T10:07:58;9.05;;;5.47;;
59659;SDS011;45534;52.690;6.268;2023-05-10T10:10:26;63.60;;;10.40;;
59659;SDS011;45534;52.690;6.268;2023-05-10T10:12:52;10.35;;;6.43;;
59659;SDS011;45534;52.690;6.268;2023-05-10T10:15:20;14.18;;;5.82;;
59659;SDS011;45534;52.690;6.268;2023-05-10T10:17:46;17.02;;;6.53;;
59659;SDS011;45534;52.690;6.268;2023-05-10T10:20:14;8.95;;;5.25;;
59659;SDS011;45534;52.690;6.268;2023-05-10T10:22:40;10.15;;;5.57;;
59659;SDS011;45534;52.690;6.268;2023-05-10T10:25:07;13.50;;;8.85;;
59659;SDS011;45534;52.690;6.268;2023-05-10T10:27:40;13.02;;;7.95;;
59659;SDS011;45534;52.690;6.268;2023-05-10T10:35:32;11.70;;;5.78;;
59659;SDS011;45534;52.690;6.268;2023-05-10T10:37:59;11.65;;;7.07;;
59659;SDS011;45534;52.690;6.268;2023-05-10T10:40:32;14.63;;;7.07;;
59659;SDS011;45534;52.690;6.268;2023-05-10T10:43:20;11.10;;;7.28;;
59659;SDS011;45534;52.690;6.268;2023-05-10T10:48:33;13.63;;;8.82;;
59659;SDS011;45534;52.690;6.268;2023-05-10T10:51:01;8.60;;;5.70;;
59659;SDS011;45534;52.690;6.268;2023-05-10T10:53:28;10.00;;;7.20;;
59659;SDS011;45534;52.690;6.268;2023-05-10T10:56:02;11.85;;;6.15;;
59659;SDS011;45534;52.690;6.268;2023-05-10T10:58:32;13.20;;;8.70;;
59659;SDS011;45534;52.690;6.268;2023-05-10T11:01:12;11.73;;;7.03;;
59659;SDS011;45534;52.690;6.268;2023-05-10T11:03:40;13.93;;;7.95;;
59659;SDS011;45534;52.690;6.268;2023-05-10T11:06:30;10.75;;;5.53;;
59659;SDS011;45534;52.690;6.268;2023-05-10T11:09:06;12.82;;;7.28;;
59659;SDS011;45534;52.690;6.268;2023-05-10T11:11:34;10.52;;;6.88;;
59659;SDS011;45534;52.690;6.268;2023-05-10T11:14:04;13.38;;;7.95;;
59659;SDS011;45534;52.690;6.268;2023-05-10T11:16:42;11.65;;;7.00;;
59659;SDS011;45534;52.690;6.268;2023-05-10T11:19:13;13.30;;;7.47;;
59659;SDS011;45534;52.690;6.268;2023-05-10T11:24:17;12.40;;;7.60;;
59659;SDS011;45534;52.690;6.268;2023-05-10T11:26:45;10.20;;;5.95;;
59659;SDS011;45534;52.690;6.268;2023-05-10T11:29:12;11.73;;;8.57;;
59659;SDS011;45534;52.690;6.268;2023-05-10T11:31:41;12.57;;;9.15;;
59659;SDS011;45534;52.690;6.268;2023-05-10T11:34:09;14.77;;;9.60;;
59659;SDS011;45534;52.690;6.268;2023-05-10T11:36:35;14.05;;;9.48;;
59659;SDS011;45534;52.690;6.268;2023-05-10T11:39:01;11.50;;;6.35;;
59659;SDS011;45534;52.690;6.268;2023-05-10T11:41:30;11.45;;;8.35;;
59659;SDS011;45534;52.690;6.268;2023-05-10T11:43:57;15.18;;;8.80;;
59659;SDS011;45534;52.690;6.268;2023-05-10T11:46:24;13.20;;;7.05;;
59659;SDS011;45534;52.690;6.268;2023-05-10T11:48:52;17.45;;;8.13;;
59659;SDS011;45534;52.690;6.268;2023-05-10T11:51:26;15.35;;;6.45;;
59659;SDS011;45534;52.690;6.268;2023-05-10T11:53:53;18.70;;;6.60;;
59659;SDS011;45534;52.690;6.268;2023-05-10T11:56:20;20.85;;;6.93;;
59659;SDS011;45534;52.690;6.268;2023-05-10T11:58:51;14.68;;;8.75;;
59659;SDS011;45534;52.690;6.268;2023-05-10T12:01:21;12.38;;;6.43;;
59659;SDS011;45534;52.690;6.268;2023-05-10T12:03:48;16.67;;;8.20;;
59659;SDS011;45534;52.690;6.268;2023-05-10T12:06:15;15.20;;;7.45;;
59659;SDS011;45534;52.690;6.268;2023-05-10T12:08:44;10.77;;;6.75;;
59659;SDS011;45534;52.690;6.268;2023-05-10T12:11:12;9.45;;;6.70;;
59659;SDS011;45534;52.690;6.268;2023-05-10T12:13:42;11.80;;;5.90;;
59659;SDS011;45534;52.690;6.268;2023-05-10T12:16:22;14.90;;;6.82;;
59659;SDS011;45534;52.690;6.268;2023-05-10T12:18:49;9.85;;;4.70;;
59659;SDS011;45534;52.690;6.268;2023-05-10T12:21:16;12.57;;;6.43;;
59659;SDS011;45534;52.690;6.268;2023-05-10T12:23:42;9.98;;;6.22;;
59659;SDS011;45534;52.690;6.268;2023-05-10T12:26:11;12.90;;;6.72;;
59659;SDS011;45534;52.690;6.268;2023-05-10T12:28:37;12.02;;;7.78;;
59659;SDS011;45534;52.690;6.268;2023-05-10T12:31:04;11.93;;;8.43;;
59659;SDS011;45534;52.690;6.268;2023-05-10T12:33:41;10.52;;;7.13;;
59659;SDS011;45534;52.690;6.268;2023-05-10T12:36:08;12.15;;;7.55;;
59659;SDS011;45534;52.690;6.268;2023-05-10T12:38:36;14.35;;;6.57;;
59659;SDS011;45534;52.690;6.268;2023-05-10T12:41:17;12.73;;;8.75;;
59659;SDS011;45534;52.690;6.268;2023-05-10T12:43:43;12.45;;;7.53;;
59659;SDS011;45534;52.690;6.268;2023-05-10T12:46:14;11.82;;;8.07;;
59659;SDS011;45534;52.690;6.268;2023-05-10T12:48:42;12.48;;;7.28;;
59659;SDS011;45534;52.690;6.268;2023-05-10T12:51:08;13.52;;;7.20;;
59659;SDS011;45534;52.690;6.268;2023-05-10T12:53:36;10.18;;;6.85;;
59659;SDS011;45534;52.690;6.268;2023-05-10T12:56:03;11.13;;;6.25;;
59659;SDS011;45534;52.690;6.268;2023-05-10T12:58:28;13.63;;;7.50;;
59659;SDS011;45534;52.690;6.268;2023-05-10T13:00:54;10.95;;;7.35;;
59659;SDS011;45534;52.690;6.268;2023-05-10T13:03:21;12.13;;;6.45;;
59659;SDS011;45534;52.690;6.268;2023-05-10T13:05:47;9.32;;;7.05;;
59659;SDS011;45534;52.690;6.268;2023-05-10T13:08:13;11.13;;;6.68;;
59659;SDS011;45534;52.690;6.268;2023-05-10T13:10:39;12.20;;;6.07;;
59659;SDS011;45534;52.690;6.268;2023-05-10T13:13:05;12.02;;;8.38;;
59659;SDS011;45534;52.690;6.268;2023-05-10T13:15:32;13.27;;;5.97;;
59659;SDS011;45534;52.690;6.268;2023-05-10T13:17:58;9.45;;;6.40;;
59659;SDS011;45534;52.690;6.268;2023-05-10T13:20:24;10.85;;;6.20;;
59659;SDS011;45534;52.690;6.268;2023-05-10T13:22:50;11.77;;;6.60;;
59659;SDS011;45534;52.690;6.268;2023-05-10T13:25:16;15.50;;;6.60;;
59659;SDS011;45534;52.690;6.268;2023-05-10T13:27:42;13.98;;;7.32;;
59659;SDS011;45534;52.690;6.268;2023-05-10T13:30:08;10.68;;;6.53;;
59659;SDS011;45534;52.690;6.268;2023-05-10T13:32:36;14.07;;;6.40;;
59659;SDS011;45534;52.690;6.268;2023-05-10T13:35:02;11.23;;;6.85;;
59659;SDS011;45534;52.690;6.268;2023-05-10T13:37:29;11.00;;;6.55;;
59659;SDS011;45534;52.690;6.268;2023-05-10T13:39:56;14.90;;;9.05;;
59659;SDS011;45534;52.690;6.268;2023-05-10T13:42:22;10.85;;;5.22;;
59659;SDS011;45534;52.690;6.268;2023-05-10T13:44:48;9.32;;;6.80;;
59659;SDS011;45534;52.690;6.268;2023-05-10T13:47:17;15.88;;;7.57;;
59659;SDS011;45534;52.690;6.268;2023-05-10T13:49:43;21.25;;;7.70;;
59659;SDS011;45534;52.690;6.268;2023-05-10T13:52:09;18.08;;;7.53;;
59659;SDS011;45534;52.690;6.268;2023-05-10T13:54:38;14.02;;;7.90;;
59659;SDS011;45534;52.690;6.268;2023-05-10T13:57:04;12.25;;;8.48;;
59659;SDS011;45534;52.690;6.268;2023-05-10T13:59:30;11.45;;;8.00;;
59659;SDS011;45534;52.690;6.268;2023-05-10T14:01:59;11.80;;;7.10;;
59659;SDS011;45534;52.690;6.268;2023-05-10T14:04:27;17.00;;;8.13;;
59659;SDS011;45534;52.690;6.268;2023-05-10T14:06:53;18.25;;;9.50;;
59659;SDS011;45534;52.690;6.268;2023-05-10T14:09:19;24.08;;;10.75;;
59659;SDS011;45534;52.690;6.268;2023-05-10T14:11:45;14.25;;;9.10;;
59659;SDS011;45534;52.690;6.268;2023-05-10T14:14:11;13.95;;;7.40;;
59659;SDS011;45534;52.690;6.268;2023-05-10T14:16:37;36.78;;;11.25;;
59659;SDS011;45534;52.690;6.268;2023-05-10T14:19:03;14.77;;;8.75;;
59659;SDS011;45534;52.690;6.268;2023-05-10T14:21:29;21.10;;;8.60;;
59659;SDS011;45534;52.690;6.268;2023-05-10T14:23:55;13.45;;;7.93;;
59659;SDS011;45534;52.690;6.268;2023-05-10T14:26:21;14.13;;;7.65;;
59659;SDS011;45534;52.690;6.268;2023-05-10T14:28:47;14.55;;;7.10;;
59659;SDS011;45534;52.690;6.268;2023-05-10T14:31:13;13.85;;;7.75;;
59659;SDS011;45534;52.690;6.268;2023-05-10T14:33:39;15.40;;;9.52;;
59659;SDS011;45534;52.690;6.268;2023-05-10T14:36:06;13.77;;;6.32;;
59659;SDS011;45534;52.690;6.268;2023-05-10T14:38:32;10.35;;;6.03;;
59659;SDS011;45534;52.690;6.268;2023-05-10T14:40:58;11.40;;;7.15;;
59659;SDS011;45534;52.690;6.268;2023-05-10T14:43:23;13.00;;;7.15;;
59659;SDS011;45534;52.690;6.268;2023-05-10T14:45:49;15.20;;;6.00;;
59659;SDS011;45534;52.690;6.268;2023-05-10T14:48:15;13.13;;;5.65;;
59659;SDS011;45534;52.690;6.268;2023-05-10T14:50:43;10.70;;;5.22;;
59659;SDS011;45534;52.690;6.268;2023-05-10T14:53:10;7.43;;;5.55;;
59659;SDS011;45534;52.690;6.268;2023-05-10T14:55:35;15.68;;;7.18;;
59659;SDS011;45534;52.690;6.268;2023-05-10T14:58:02;10.00;;;7.05;;
59659;SDS011;45534;52.690;6.268;2023-05-10T15:00:28;10.30;;;6.43;;
59659;SDS011;45534;52.690;6.268;2023-05-10T15:02:55;8.75;;;5.40;;
59659;SDS011;45534;52.690;6.268;2023-05-10T15:05:20;9.25;;;6.28;;
59659;SDS011;45534;52.690;6.268;2023-05-10T15:07:46;13.25;;;8.13;;
59659;SDS011;45534;52.690;6.268;2023-05-10T15:10:12;10.30;;;4.97;;
59659;SDS011;45534;52.690;6.268;2023-05-10T15:12:39;10.00;;;6.57;;
59659;SDS011;45534;52.690;6.268;2023-05-10T15:15:05;9.48;;;4.57;;
59659;SDS011;45534;52.690;6.268;2023-05-10T15:17:31;10.07;;;6.05;;
59659;SDS011;45534;52.690;6.268;2023-05-10T15:19:57;9.63;;;6.00;;
59659;SDS011;45534;52.690;6.268;2023-05-10T15:22:23;9.93;;;6.00;;
59659;SDS011;45534;52.690;6.268;2023-05-10T15:24:49;8.02;;;5.78;;
59659;SDS011;45534;52.690;6.268;2023-05-10T15:27:14;11.13;;;5.32;;
59659;SDS011;45534;52.690;6.268;2023-05-10T15:29:40;10.80;;;6.38;;